AAL302 KMIA-MYGF
Flight info
| Callsign | AAL302 |
|---|---|
| Flight time | 0h 23m |
| Altitude | 15000 |
| Route | FOLZZ3 PADUS |
| Aircraft | A319/M-SDE3FGHIRWY/LB1 |
Departure
| Time | 2026-04-20 23:39 |
|---|---|
| Airport | Miami International Airport (KMIA) |
Arrival
| Time | 2026-04-21 00:02 |
|---|---|
| Airport | Grand Bahama International Airport (MYGF) |
| Time | Latitude | Longitude | Altitude | Speed | Heading |
|---|---|---|---|---|---|
| 2026-04-20 22:52 | 25.79814 | -80.28412 | 14 ft | 0 kts | 178° |
| 2026-04-20 23:27 | 25.79820 | -80.28412 | 14 ft | 2 kts | 178° |
| 2026-04-20 23:27 | 25.79835 | -80.28413 | 14 ft | 2 kts | 178° |
| 2026-04-20 23:27 | 25.79851 | -80.28413 | 14 ft | 2 kts | 177° |
| 2026-04-20 23:28 | 25.79866 | -80.28411 | 14 ft | 2 kts | 208° |
| 2026-04-20 23:28 | 25.79879 | -80.28399 | 14 ft | 2 kts | 237° |
| 2026-04-20 23:28 | 25.79885 | -80.28383 | 14 ft | 1 kts | 264° |
| 2026-04-20 23:28 | 25.79885 | -80.28376 | 14 ft | 1 kts | 271° |
| 2026-04-20 23:29 | 25.79885 | -80.28374 | 14 ft | 0 kts | 269° |
| 2026-04-20 23:32 | 25.79885 | -80.28380 | 14 ft | 2 kts | 270° |
| 2026-04-20 23:32 | 25.79890 | -80.28406 | 14 ft | 4 kts | 300° |
| 2026-04-20 23:32 | 25.79923 | -80.28433 | 14 ft | 6 kts | 323° |
| 2026-04-20 23:33 | 25.79945 | -80.28487 | 14 ft | 8 kts | 271° |
| 2026-04-20 23:33 | 25.79943 | -80.28565 | 14 ft | 11 kts | 268° |
| 2026-04-20 23:33 | 25.79939 | -80.28660 | 14 ft | 13 kts | 266° |
| 2026-04-20 23:33 | 25.79934 | -80.28770 | 14 ft | 15 kts | 268° |
| 2026-04-20 23:34 | 25.79930 | -80.28895 | 14 ft | 16 kts | 268° |
| 2026-04-20 23:34 | 25.79923 | -80.29032 | 14 ft | 18 kts | 267° |
| 2026-04-20 23:34 | 25.79917 | -80.29182 | 14 ft | 19 kts | 268° |
| 2026-04-20 23:34 | 25.79914 | -80.29337 | 14 ft | 19 kts | 269° |
| 2026-04-20 23:35 | 25.79905 | -80.29498 | 14 ft | 19 kts | 266° |
| 2026-04-20 23:35 | 25.79917 | -80.29784 | 14 ft | 17 kts | 287° |
| 2026-04-20 23:35 | 25.79963 | -80.29912 | 14 ft | 14 kts | 291° |
| 2026-04-20 23:36 | 25.79978 | -80.29960 | 14 ft | 0 kts | 286° |
| 2026-04-20 23:36 | 25.79979 | -80.29967 | 14 ft | 0 kts | 286° |
| 2026-04-20 23:36 | 25.79983 | -80.29980 | 14 ft | 3 kts | 287° |
| 2026-04-20 23:36 | 25.79994 | -80.30024 | 14 ft | 8 kts | 287° |
| 2026-04-20 23:37 | 25.80028 | -80.30103 | 14 ft | 12 kts | 315° |
| 2026-04-20 23:37 | 25.80075 | -80.30090 | 14 ft | 6 kts | 84° |
| 2026-04-20 23:37 | 25.80075 | -80.30079 | 14 ft | 0 kts | 89° |
| 2026-04-20 23:37 | 25.80075 | -80.30077 | 14 ft | 0 kts | 89° |
| 2026-04-20 23:38 | 25.80075 | -80.30070 | 14 ft | 1 kts | 88° |
| 2026-04-20 23:38 | 25.80077 | -80.30021 | 14 ft | 27 kts | 88° |
| 2026-04-20 23:38 | 25.80098 | -80.29481 | 15 ft | 109 kts | 87° |
| 2026-04-20 23:38 | 25.80144 | -80.28394 | 65 ft | 167 kts | 85° |
| 2026-04-20 23:39 | 25.80175 | -80.27052 | 668 ft | 179 kts | 85° |
| 2026-04-20 23:39 | 25.80176 | -80.25679 | 1607 ft | 179 kts | 85° |
| 2026-04-20 23:39 | 25.79921 | -80.24300 | 2355 ft | 196 kts | 107° |
| 2026-04-20 23:39 | 25.79243 | -80.22855 | 2954 ft | 218 kts | 115° |
| 2026-04-20 23:40 | 25.78431 | -80.21276 | 3525 ft | 242 kts | 115° |
| 2026-04-20 23:40 | 25.77566 | -80.19532 | 4226 ft | 260 kts | 115° |
| 2026-04-20 23:40 | 25.76669 | -80.17674 | 5113 ft | 270 kts | 115° |
| 2026-04-20 23:40 | 25.75761 | -80.15852 | 6082 ft | 275 kts | 116° |
| 2026-04-20 23:41 | 25.74828 | -80.13986 | 7034 ft | 280 kts | 115° |
| 2026-04-20 23:41 | 25.74239 | -80.11929 | 7905 ft | 282 kts | 90° |
| 2026-04-20 23:41 | 25.74556 | -80.09834 | 8772 ft | 283 kts | 64° |
| 2026-04-20 23:41 | 25.75681 | -80.08004 | 9626 ft | 286 kts | 46° |
| 2026-04-20 23:42 | 25.77059 | -80.06290 | 10435 ft | 295 kts | 45° |
| 2026-04-20 23:42 | 25.78523 | -80.04493 | 11014 ft | 312 kts | 45° |
| 2026-04-20 23:42 | 25.80088 | -80.02555 | 11524 ft | 331 kts | 45° |
| 2026-04-20 23:42 | 25.81701 | -80.00535 | 12194 ft | 343 kts | 45° |
| 2026-04-20 23:43 | 25.83390 | -79.98402 | 13029 ft | 349 kts | 45° |
| 2026-04-20 23:43 | 25.85039 | -79.96312 | 13814 ft | 354 kts | 45° |
| 2026-04-20 23:43 | 25.86696 | -79.94211 | 14470 ft | 360 kts | 45° |
| 2026-04-20 23:43 | 25.88360 | -79.92096 | 14860 ft | 364 kts | 45° |
| 2026-04-20 23:44 | 25.90045 | -79.89955 | 14983 ft | 366 kts | 45° |
| 2026-04-20 23:44 | 25.91730 | -79.87809 | 14995 ft | 366 kts | 45° |
| 2026-04-20 23:44 | 25.93408 | -79.85671 | 14853 ft | 365 kts | 45° |
| 2026-04-20 23:44 | 25.95074 | -79.83550 | 14617 ft | 362 kts | 45° |
| 2026-04-20 23:45 | 25.96738 | -79.81432 | 14376 ft | 360 kts | 45° |
| 2026-04-20 23:45 | 25.98389 | -79.79324 | 14135 ft | 357 kts | 45° |
| 2026-04-20 23:45 | 26.00031 | -79.77230 | 13785 ft | 355 kts | 45° |
| 2026-04-20 23:45 | 26.01660 | -79.75150 | 13423 ft | 351 kts | 46° |
| 2026-04-20 23:46 | 26.03268 | -79.73099 | 13070 ft | 348 kts | 45° |
| 2026-04-20 23:46 | 26.04874 | -79.71048 | 12712 ft | 346 kts | 46° |
| 2026-04-20 23:46 | 26.06454 | -79.69030 | 12351 ft | 344 kts | 46° |
| 2026-04-20 23:46 | 26.08024 | -79.67024 | 11987 ft | 341 kts | 46° |
| 2026-04-20 23:47 | 26.09594 | -79.65012 | 11619 ft | 340 kts | 47° |
| 2026-04-20 23:47 | 26.11068 | -79.62976 | 11262 ft | 338 kts | 50° |
| 2026-04-20 23:47 | 26.12454 | -79.60855 | 10900 ft | 335 kts | 52° |
| 2026-04-20 23:47 | 26.13791 | -79.58761 | 10538 ft | 332 kts | 52° |
| 2026-04-20 23:48 | 26.15134 | -79.56645 | 10171 ft | 329 kts | 52° |
| 2026-04-20 23:48 | 26.16451 | -79.54569 | 9810 ft | 326 kts | 52° |
| 2026-04-20 23:48 | 26.17742 | -79.52533 | 9451 ft | 322 kts | 52° |
| 2026-04-20 23:48 | 26.19033 | -79.50496 | 9084 ft | 316 kts | 52° |
| 2026-04-20 23:49 | 26.20300 | -79.48498 | 8717 ft | 311 kts | 52° |
| 2026-04-20 23:49 | 26.21544 | -79.46532 | 8353 ft | 306 kts | 53° |
| 2026-04-20 23:49 | 26.22754 | -79.44621 | 7993 ft | 302 kts | 53° |
| 2026-04-20 23:49 | 26.24003 | -79.42648 | 7614 ft | 298 kts | 53° |
| 2026-04-20 23:50 | 26.25209 | -79.40743 | 7245 ft | 294 kts | 53° |
| 2026-04-20 23:50 | 26.26410 | -79.38844 | 6869 ft | 290 kts | 53° |
| 2026-04-20 23:50 | 26.27596 | -79.36971 | 6496 ft | 286 kts | 53° |
| 2026-04-20 23:50 | 26.28686 | -79.35014 | 6133 ft | 283 kts | 61° |
| 2026-04-20 23:51 | 26.29433 | -79.32996 | 6024 ft | 271 kts | 70° |
| 2026-04-20 23:51 | 26.30004 | -79.30944 | 5819 ft | 266 kts | 71° |
| 2026-04-20 23:51 | 26.30538 | -79.28925 | 5595 ft | 264 kts | 72° |
| 2026-04-20 23:51 | 26.31073 | -79.26905 | 5370 ft | 262 kts | 71° |
| 2026-04-20 23:52 | 26.31592 | -79.24960 | 5150 ft | 261 kts | 71° |
| 2026-04-20 23:52 | 26.32118 | -79.22999 | 4929 ft | 260 kts | 71° |
| 2026-04-20 23:52 | 26.32643 | -79.21047 | 4707 ft | 258 kts | 71° |
| 2026-04-20 23:52 | 26.33159 | -79.19133 | 4487 ft | 257 kts | 71° |
| 2026-04-20 23:53 | 26.33680 | -79.17202 | 4265 ft | 256 kts | 71° |
| 2026-04-20 23:53 | 26.34194 | -79.15295 | 4050 ft | 255 kts | 71° |
| 2026-04-20 23:53 | 26.34706 | -79.13400 | 3974 ft | 254 kts | 71° |
| 2026-04-20 23:53 | 26.35264 | -79.11489 | 3968 ft | 254 kts | 67° |
| 2026-04-20 23:54 | 26.35965 | -79.09707 | 3964 ft | 253 kts | 61° |
| 2026-04-20 23:54 | 26.36801 | -79.07970 | 3962 ft | 253 kts | 59° |
| 2026-04-20 23:54 | 26.37678 | -79.06203 | 3961 ft | 253 kts | 59° |
| 2026-04-20 23:54 | 26.38524 | -79.04495 | 3962 ft | 253 kts | 59° |
| 2026-04-20 23:55 | 26.39383 | -79.02759 | 3962 ft | 252 kts | 59° |
| 2026-04-20 23:55 | 26.40241 | -79.01022 | 3961 ft | 253 kts | 59° |
| 2026-04-20 23:55 | 26.41107 | -78.99268 | 3966 ft | 253 kts | 59° |
| 2026-04-20 23:55 | 26.41948 | -78.97561 | 3969 ft | 252 kts | 59° |
| 2026-04-20 23:56 | 26.42790 | -78.95850 | 3835 ft | 247 kts | 59° |
| 2026-04-20 23:56 | 26.43621 | -78.94164 | 3431 ft | 249 kts | 59° |
| 2026-04-20 23:56 | 26.44472 | -78.92436 | 2972 ft | 252 kts | 59° |
| 2026-04-20 23:56 | 26.45322 | -78.90710 | 2472 ft | 250 kts | 59° |
| 2026-04-20 23:57 | 26.46140 | -78.89044 | 2087 ft | 236 kts | 59° |
| 2026-04-20 23:57 | 26.46892 | -78.87517 | 1985 ft | 212 kts | 59° |
| 2026-04-20 23:57 | 26.47583 | -78.86130 | 1975 ft | 194 kts | 58° |
| 2026-04-20 23:57 | 26.48228 | -78.84839 | 1963 ft | 179 kts | 58° |
| 2026-04-20 23:58 | 26.48815 | -78.83662 | 1961 ft | 168 kts | 58° |
| 2026-04-20 23:58 | 26.49390 | -78.82513 | 1953 ft | 166 kts | 58° |
| 2026-04-20 23:58 | 26.49939 | -78.81410 | 1963 ft | 150 kts | 57° |
| 2026-04-20 23:58 | 26.50435 | -78.80415 | 1791 ft | 137 kts | 57° |
| 2026-04-20 23:59 | 26.50907 | -78.79466 | 1636 ft | 128 kts | 57° |
| 2026-04-20 23:59 | 26.51362 | -78.78561 | 1519 ft | 127 kts | 57° |
| 2026-04-20 23:59 | 26.51790 | -78.77706 | 1333 ft | 123 kts | 57° |
| 2026-04-20 23:59 | 26.52230 | -78.76829 | 1168 ft | 122 kts | 58° |
| 2026-04-21 00:00 | 26.52661 | -78.75967 | 1005 ft | 122 kts | 58° |
| 2026-04-21 00:00 | 26.53094 | -78.75101 | 833 ft | 122 kts | 58° |
| 2026-04-21 00:00 | 26.53511 | -78.74256 | 664 ft | 121 kts | 59° |
| 2026-04-21 00:00 | 26.53938 | -78.73412 | 478 ft | 121 kts | 58° |
| 2026-04-21 00:01 | 26.54380 | -78.72543 | 293 ft | 120 kts | 60° |
| 2026-04-21 00:01 | 26.54783 | -78.71714 | 132 ft | 119 kts | 60° |
| 2026-04-21 00:01 | 26.55192 | -78.70901 | 56 ft | 120 kts | 60° |
| 2026-04-21 00:01 | 26.55586 | -78.70121 | 16 ft | 87 kts | 63° |
| 2026-04-21 00:02 | 26.55783 | -78.69727 | 18 ft | 51 kts | 60° |
| 2026-04-21 00:02 | 26.55902 | -78.69486 | 18 ft | 21 kts | 61° |
| 2026-04-21 00:02 | 26.55979 | -78.69333 | 18 ft | 22 kts | 60° |
| 2026-04-21 00:02 | 26.56057 | -78.69177 | 18 ft | 22 kts | 61° |
| 2026-04-21 00:03 | 26.56135 | -78.69022 | 18 ft | 22 kts | 61° |
| 2026-04-21 00:03 | 26.56201 | -78.68883 | 18 ft | 15 kts | 70° |
| 2026-04-21 00:03 | 26.56167 | -78.68790 | 18 ft | 13 kts | 156° |
| 2026-04-21 00:03 | 26.56094 | -78.68825 | 18 ft | 13 kts | 239° |
| 2026-04-21 00:04 | 26.56047 | -78.68920 | 18 ft | 14 kts | 240° |
| 2026-04-21 00:04 | 26.55995 | -78.69023 | 18 ft | 15 kts | 241° |
| 2026-04-21 00:04 | 26.55940 | -78.69134 | 18 ft | 16 kts | 240° |
| 2026-04-21 00:04 | 26.55881 | -78.69252 | 18 ft | 17 kts | 241° |
| 2026-04-21 00:05 | 26.55821 | -78.69374 | 18 ft | 18 kts | 241° |
| 2026-04-21 00:05 | 26.55743 | -78.69488 | 18 ft | 18 kts | 220° |
| 2026-04-21 00:05 | 26.55641 | -78.69586 | 18 ft | 19 kts | 220° |
| 2026-04-21 00:05 | 26.55535 | -78.69688 | 18 ft | 19 kts | 221° |
| 2026-04-21 00:06 | 26.55428 | -78.69794 | 18 ft | 20 kts | 221° |
| 2026-04-21 00:06 | 26.55319 | -78.69900 | 18 ft | 20 kts | 220° |
| 2026-04-21 00:06 | 26.55206 | -78.70008 | 18 ft | 21 kts | 221° |
| 2026-04-21 00:06 | 26.55093 | -78.70119 | 18 ft | 21 kts | 221° |
| 2026-04-21 00:07 | 26.54978 | -78.70230 | 18 ft | 15 kts | 218° |
| 2026-04-21 00:07 | 26.54902 | -78.70253 | 20 ft | 9 kts | 182° |
| 2026-04-21 00:07 | 26.54838 | -78.70262 | 21 ft | 6 kts | 226° |
| 2026-04-21 00:07 | 26.54836 | -78.70280 | 21 ft | 0 kts | 279° |